sensor_id;sensor_type;location;lat;lon;timestamp;temperature;humidity
19025;DHT22;9645;51.448;6.260;2024-03-07T00:00:31;5.20;99.90
19025;DHT22;9645;51.448;6.260;2024-03-07T00:02:58;5.20;99.90
19025;DHT22;9645;51.448;6.260;2024-03-07T00:05:26;5.20;99.90
19025;DHT22;9645;51.448;6.260;2024-03-07T00:07:54;5.10;99.90
19025;DHT22;9645;51.448;6.260;2024-03-07T00:10:21;5.10;99.90
19025;DHT22;9645;51.448;6.260;2024-03-07T00:12:48;5.10;99.90
19025;DHT22;9645;51.448;6.260;2024-03-07T00:15:17;5.10;99.90
19025;DHT22;9645;51.448;6.260;2024-03-07T00:17:44;5.00;99.90
19025;DHT22;9645;51.448;6.260;2024-03-07T00:20:11;5.00;99.90
19025;DHT22;9645;51.448;6.260;2024-03-07T00:22:40;5.00;99.90
19025;DHT22;9645;51.448;6.260;2024-03-07T00:25:08;5.00;99.90
19025;DHT22;9645;51.448;6.260;2024-03-07T00:27:36;4.90;99.90
19025;DHT22;9645;51.448;6.260;2024-03-07T00:30:04;5.00;99.90
19025;DHT22;9645;51.448;6.260;2024-03-07T00:32:35;4.90;99.90
19025;DHT22;9645;51.448;6.260;2024-03-07T00:35:05;4.80;99.90
19025;DHT22;9645;51.448;6.260;2024-03-07T00:37:34;4.80;99.90
19025;DHT22;9645;51.448;6.260;2024-03-07T00:40:01;4.70;99.90
19025;DHT22;9645;51.448;6.260;2024-03-07T00:42:28;4.70;99.90
19025;DHT22;9645;51.448;6.260;2024-03-07T00:44:56;4.60;99.90
19025;DHT22;9645;51.448;6.260;2024-03-07T00:47:23;4.60;99.90
19025;DHT22;9645;51.448;6.260;2024-03-07T00:49:51;4.60;99.90
19025;DHT22;9645;51.448;6.260;2024-03-07T00:52:18;4.60;99.90
19025;DHT22;9645;51.448;6.260;2024-03-07T00:54:45;4.50;99.90
19025;DHT22;9645;51.448;6.260;2024-03-07T00:57:13;4.50;99.90
19025;DHT22;9645;51.448;6.260;2024-03-07T00:59:41;4.50;99.90
19025;DHT22;9645;51.448;6.260;2024-03-07T01:02:08;4.50;99.90
19025;DHT22;9645;51.448;6.260;2024-03-07T01:04:35;4.50;99.90
19025;DHT22;9645;51.448;6.260;2024-03-07T01:07:03;4.40;99.90
19025;DHT22;9645;51.448;6.260;2024-03-07T01:09:30;4.40;99.90
19025;DHT22;9645;51.448;6.260;2024-03-07T01:11:57;4.40;99.90
19025;DHT22;9645;51.448;6.260;2024-03-07T01:14:25;4.40;99.90
19025;DHT22;9645;51.448;6.260;2024-03-07T01:16:52;4.40;99.90
19025;DHT22;9645;51.448;6.260;2024-03-07T01:19:19;4.30;99.90
19025;DHT22;9645;51.448;6.260;2024-03-07T01:21:46;4.30;99.90
19025;DHT22;9645;51.448;6.260;2024-03-07T01:24:14;4.20;99.90
19025;DHT22;9645;51.448;6.260;2024-03-07T01:26:43;4.10;99.90
19025;DHT22;9645;51.448;6.260;2024-03-07T01:29:10;4.20;99.90
19025;DHT22;9645;51.448;6.260;2024-03-07T01:31:37;4.10;99.90
19025;DHT22;9645;51.448;6.260;2024-03-07T01:34:04;4.10;99.90
19025;DHT22;9645;51.448;6.260;2024-03-07T01:36:31;4.10;99.90
19025;DHT22;9645;51.448;6.260;2024-03-07T01:38:58;4.10;99.90
19025;DHT22;9645;51.448;6.260;2024-03-07T01:41:26;4.00;99.90
19025;DHT22;9645;51.448;6.260;2024-03-07T01:43:53;4.00;99.90
19025;DHT22;9645;51.448;6.260;2024-03-07T01:46:20;4.00;99.90
19025;DHT22;9645;51.448;6.260;2024-03-07T01:48:47;4.00;99.90
19025;DHT22;9645;51.448;6.260;2024-03-07T01:51:15;4.00;99.90
19025;DHT22;9645;51.448;6.260;2024-03-07T01:53:42;4.10;99.90
19025;DHT22;9645;51.448;6.260;2024-03-07T01:56:09;4.10;99.90
19025;DHT22;9645;51.448;6.260;2024-03-07T01:58:37;4.00;99.90
19025;DHT22;9645;51.448;6.260;2024-03-07T02:01:05;4.00;99.90
19025;DHT22;9645;51.448;6.260;2024-03-07T02:03:32;4.10;99.90
19025;DHT22;9645;51.448;6.260;2024-03-07T02:06:02;4.00;99.90
19025;DHT22;9645;51.448;6.260;2024-03-07T02:08:29;4.00;99.90
19025;DHT22;9645;51.448;6.260;2024-03-07T02:10:57;4.00;99.90
19025;DHT22;9645;51.448;6.260;2024-03-07T02:13:24;3.90;99.90
19025;DHT22;9645;51.448;6.260;2024-03-07T02:15:53;3.80;99.90
19025;DHT22;9645;51.448;6.260;2024-03-07T02:18:20;3.80;99.90
19025;DHT22;9645;51.448;6.260;2024-03-07T02:20:48;3.80;99.90
19025;DHT22;9645;51.448;6.260;2024-03-07T02:23:15;3.80;99.90
19025;DHT22;9645;51.448;6.260;2024-03-07T02:25:42;3.70;99.90
19025;DHT22;9645;51.448;6.260;2024-03-07T02:28:10;3.70;99.90
19025;DHT22;9645;51.448;6.260;2024-03-07T02:30:37;3.70;99.90
19025;DHT22;9645;51.448;6.260;2024-03-07T02:33:04;3.70;99.90
19025;DHT22;9645;51.448;6.260;2024-03-07T02:35:33;3.70;99.90
19025;DHT22;9645;51.448;6.260;2024-03-07T02:38:03;3.70;99.90
19025;DHT22;9645;51.448;6.260;2024-03-07T02:40:31;3.70;99.90
19025;DHT22;9645;51.448;6.260;2024-03-07T02:42:58;3.70;99.90
19025;DHT22;9645;51.448;6.260;2024-03-07T02:45:25;3.70;99.90
19025;DHT22;9645;51.448;6.260;2024-03-07T02:47:52;3.70;99.90
19025;DHT22;9645;51.448;6.260;2024-03-07T02:50:19;3.70;99.90
19025;DHT22;9645;51.448;6.260;2024-03-07T02:52:48;3.80;99.90
19025;DHT22;9645;51.448;6.260;2024-03-07T02:55:17;3.70;99.90
19025;DHT22;9645;51.448;6.260;2024-03-07T02:57:44;3.80;99.90
19025;DHT22;9645;51.448;6.260;2024-03-07T03:00:12;3.70;99.90
19025;DHT22;9645;51.448;6.260;2024-03-07T03:02:52;3.70;99.90
19025;DHT22;9645;51.448;6.260;2024-03-07T03:05:19;3.70;99.90
19025;DHT22;9645;51.448;6.260;2024-03-07T03:07:47;3.70;99.90
19025;DHT22;9645;51.448;6.260;2024-03-07T03:10:23;4.20;99.90
19025;DHT22;9645;51.448;6.260;2024-03-07T03:12:52;3.60;99.90
19025;DHT22;9645;51.448;6.260;2024-03-07T03:15:20;3.50;99.90
19025;DHT22;9645;51.448;6.260;2024-03-07T03:17:47;3.60;99.90
19025;DHT22;9645;51.448;6.260;2024-03-07T03:20:15;3.60;99.90
19025;DHT22;9645;51.448;6.260;2024-03-07T03:22:53;3.40;99.90
19025;DHT22;9645;51.448;6.260;2024-03-07T03:25:22;3.60;99.90
19025;DHT22;9645;51.448;6.260;2024-03-07T03:27:49;3.60;99.90
19025;DHT22;9645;51.448;6.260;2024-03-07T03:30:16;3.60;99.90
19025;DHT22;9645;51.448;6.260;2024-03-07T03:32:45;3.70;99.90
19025;DHT22;9645;51.448;6.260;2024-03-07T03:35:12;3.70;99.90
19025;DHT22;9645;51.448;6.260;2024-03-07T03:37:40;3.70;99.90
19025;DHT22;9645;51.448;6.260;2024-03-07T03:40:09;3.60;99.90
19025;DHT22;9645;51.448;6.260;2024-03-07T03:42:39;3.60;99.90
19025;DHT22;9645;51.448;6.260;2024-03-07T03:45:07;3.60;99.90
19025;DHT22;9645;51.448;6.260;2024-03-07T03:47:35;3.50;99.90
19025;DHT22;9645;51.448;6.260;2024-03-07T03:50:03;3.50;99.90
19025;DHT22;9645;51.448;6.260;2024-03-07T03:52:31;3.40;99.90
19025;DHT22;9645;51.448;6.260;2024-03-07T03:54:58;3.40;99.90
19025;DHT22;9645;51.448;6.260;2024-03-07T03:57:26;3.30;99.90
19025;DHT22;9645;51.448;6.260;2024-03-07T03:59:54;3.30;99.90
19025;DHT22;9645;51.448;6.260;2024-03-07T04:02:22;3.20;99.90
19025;DHT22;9645;51.448;6.260;2024-03-07T04:04:49;3.20;99.90
19025;DHT22;9645;51.448;6.260;2024-03-07T04:07:17;3.20;99.90
19025;DHT22;9645;51.448;6.260;2024-03-07T04:09:44;3.10;99.90
19025;DHT22;9645;51.448;6.260;2024-03-07T04:12:13;3.20;99.90
19025;DHT22;9645;51.448;6.260;2024-03-07T04:14:41;3.10;99.90
19025;DHT22;9645;51.448;6.260;2024-03-07T04:17:10;3.20;99.90
19025;DHT22;9645;51.448;6.260;2024-03-07T04:19:39;3.20;99.90
19025;DHT22;9645;51.448;6.260;2024-03-07T04:22:06;3.20;99.90
19025;DHT22;9645;51.448;6.260;2024-03-07T04:24:34;3.20;99.90
19025;DHT22;9645;51.448;6.260;2024-03-07T04:27:02;3.10;99.90
19025;DHT22;9645;51.448;6.260;2024-03-07T04:29:30;3.10;99.90
19025;DHT22;9645;51.448;6.260;2024-03-07T04:31:57;3.00;99.90
19025;DHT22;9645;51.448;6.260;2024-03-07T04:34:26;3.10;99.90
19025;DHT22;9645;51.448;6.260;2024-03-07T04:36:53;3.10;99.90
19025;DHT22;9645;51.448;6.260;2024-03-07T04:39:20;3.10;99.90
19025;DHT22;9645;51.448;6.260;2024-03-07T04:41:53;3.20;99.90
19025;DHT22;9645;51.448;6.260;2024-03-07T04:44:20;3.30;99.90
19025;DHT22;9645;51.448;6.260;2024-03-07T04:46:48;3.30;99.90
19025;DHT22;9645;51.448;6.260;2024-03-07T04:49:16;3.30;99.90
19025;DHT22;9645;51.448;6.260;2024-03-07T04:51:44;3.20;99.90
19025;DHT22;9645;51.448;6.260;2024-03-07T04:54:12;3.30;99.90
19025;DHT22;9645;51.448;6.260;2024-03-07T04:56:39;3.10;99.90
19025;DHT22;9645;51.448;6.260;2024-03-07T04:59:06;3.20;99.90
19025;DHT22;9645;51.448;6.260;2024-03-07T05:01:33;3.10;99.90
19025;DHT22;9645;51.448;6.260;2024-03-07T05:04:00;3.00;99.90
19025;DHT22;9645;51.448;6.260;2024-03-07T05:06:28;3.10;99.90
19025;DHT22;9645;51.448;6.260;2024-03-07T05:09:00;3.00;99.90
19025;DHT22;9645;51.448;6.260;2024-03-07T05:11:28;3.10;99.90
19025;DHT22;9645;51.448;6.260;2024-03-07T05:13:55;3.00;99.90
19025;DHT22;9645;51.448;6.260;2024-03-07T05:16:23;2.90;99.90
19025;DHT22;9645;51.448;6.260;2024-03-07T05:18:50;2.90;99.90
19025;DHT22;9645;51.448;6.260;2024-03-07T05:21:18;2.90;99.90
19025;DHT22;9645;51.448;6.260;2024-03-07T05:24:01;3.30;99.90
19025;DHT22;9645;51.448;6.260;2024-03-07T05:26:30;2.80;99.90
19025;DHT22;9645;51.448;6.260;2024-03-07T05:29:00;2.80;99.90
19025;DHT22;9645;51.448;6.260;2024-03-07T05:31:28;2.80;99.90
19025;DHT22;9645;51.448;6.260;2024-03-07T05:33:55;2.80;99.90
19025;DHT22;9645;51.448;6.260;2024-03-07T05:36:22;2.80;99.90
19025;DHT22;9645;51.448;6.260;2024-03-07T05:38:49;2.70;99.90
19025;DHT22;9645;51.448;6.260;2024-03-07T05:41:18;2.70;99.90
19025;DHT22;9645;51.448;6.260;2024-03-07T05:43:46;2.70;99.90
19025;DHT22;9645;51.448;6.260;2024-03-07T05:46:13;2.60;99.90
19025;DHT22;9645;51.448;6.260;2024-03-07T05:48:40;2.70;99.90
19025;DHT22;9645;51.448;6.260;2024-03-07T05:51:07;2.70;99.90
19025;DHT22;9645;51.448;6.260;2024-03-07T05:53:35;2.60;99.90
19025;DHT22;9645;51.448;6.260;2024-03-07T05:56:03;2.60;99.90
19025;DHT22;9645;51.448;6.260;2024-03-07T05:58:33;2.70;99.90
19025;DHT22;9645;51.448;6.260;2024-03-07T06:01:00;2.70;99.90
19025;DHT22;9645;51.448;6.260;2024-03-07T06:03:27;2.70;99.90
19025;DHT22;9645;51.448;6.260;2024-03-07T06:05:54;2.80;99.90
19025;DHT22;9645;51.448;6.260;2024-03-07T06:08:23;2.80;99.90
19025;DHT22;9645;51.448;6.260;2024-03-07T06:10:55;2.80;99.90
19025;DHT22;9645;51.448;6.260;2024-03-07T06:13:23;2.70;99.90
19025;DHT22;9645;51.448;6.260;2024-03-07T06:15:51;2.60;99.90
19025;DHT22;9645;51.448;6.260;2024-03-07T06:18:18;2.60;99.90
19025;DHT22;9645;51.448;6.260;2024-03-07T06:20:45;2.60;99.90
19025;DHT22;9645;51.448;6.260;2024-03-07T06:23:13;2.50;99.90
19025;DHT22;9645;51.448;6.260;2024-03-07T06:25:42;2.60;99.90
19025;DHT22;9645;51.448;6.260;2024-03-07T06:28:16;2.60;99.90
19025;DHT22;9645;51.448;6.260;2024-03-07T06:30:44;2.60;99.90
19025;DHT22;9645;51.448;6.260;2024-03-07T06:33:14;2.60;99.90
19025;DHT22;9645;51.448;6.260;2024-03-07T06:35:42;2.60;99.90
19025;DHT22;9645;51.448;6.260;2024-03-07T06:38:10;2.60;99.90
19025;DHT22;9645;51.448;6.260;2024-03-07T06:40:38;2.70;99.90
19025;DHT22;9645;51.448;6.260;2024-03-07T06:43:06;2.80;99.90
19025;DHT22;9645;51.448;6.260;2024-03-07T06:45:33;3.00;99.90
19025;DHT22;9645;51.448;6.260;2024-03-07T06:48:00;3.10;99.90
19025;DHT22;9645;51.448;6.260;2024-03-07T06:50:29;3.20;99.90
19025;DHT22;9645;51.448;6.260;2024-03-07T06:52:56;3.30;99.90
19025;DHT22;9645;51.448;6.260;2024-03-07T06:55:23;3.70;99.90
19025;DHT22;9645;51.448;6.260;2024-03-07T06:57:50;4.60;99.90
19025;DHT22;9645;51.448;6.260;2024-03-07T07:00:17;5.60;99.90
19025;DHT22;9645;51.448;6.260;2024-03-07T07:02:45;6.50;99.90
19025;DHT22;9645;51.448;6.260;2024-03-07T07:05:13;7.10;99.90
19025;DHT22;9645;51.448;6.260;2024-03-07T07:07:42;7.10;99.90
19025;DHT22;9645;51.448;6.260;2024-03-07T07:10:10;7.00;99.90
19025;DHT22;9645;51.448;6.260;2024-03-07T07:12:42;6.90;99.90
19025;DHT22;9645;51.448;6.260;2024-03-07T07:15:10;6.60;99.90
19025;DHT22;9645;51.448;6.260;2024-03-07T07:17:41;6.20;99.90
19025;DHT22;9645;51.448;6.260;2024-03-07T07:20:11;5.90;99.90
19025;DHT22;9645;51.448;6.260;2024-03-07T07:22:42;5.60;99.90
19025;DHT22;9645;51.448;6.260;2024-03-07T07:25:09;5.50;99.90
19025;DHT22;9645;51.448;6.260;2024-03-07T07:27:40;5.30;99.90
19025;DHT22;9645;51.448;6.260;2024-03-07T07:30:08;5.30;99.90
19025;DHT22;9645;51.448;6.260;2024-03-07T07:32:35;5.30;99.90
19025;DHT22;9645;51.448;6.260;2024-03-07T07:35:02;5.30;99.90
19025;DHT22;9645;51.448;6.260;2024-03-07T07:37:31;5.40;99.90
19025;DHT22;9645;51.448;6.260;2024-03-07T07:39:59;5.50;99.90
19025;DHT22;9645;51.448;6.260;2024-03-07T07:42:26;5.60;99.90
19025;DHT22;9645;51.448;6.260;2024-03-07T07:44:53;5.60;99.90
19025;DHT22;9645;51.448;6.260;2024-03-07T07:47:20;5.80;99.90
19025;DHT22;9645;51.448;6.260;2024-03-07T07:49:47;5.90;99.90
19025;DHT22;9645;51.448;6.260;2024-03-07T07:52:14;6.30;99.90
19025;DHT22;9645;51.448;6.260;2024-03-07T07:54:42;8.50;99.90
19025;DHT22;9645;51.448;6.260;2024-03-07T07:57:11;10.50;1.00
19025;DHT22;9645;51.448;6.260;2024-03-07T07:59:38;11.10;1.00
19025;DHT22;9645;51.448;6.260;2024-03-07T08:02:05;11.70;1.00
19025;DHT22;9645;51.448;6.260;2024-03-07T08:04:32;12.20;13.80
19025;DHT22;9645;51.448;6.260;2024-03-07T08:07:00;12.60;1.00
19025;DHT22;9645;51.448;6.260;2024-03-07T08:09:26;12.80;1.00
19025;DHT22;9645;51.448;6.260;2024-03-07T08:11:53;12.80;1.00
19025;DHT22;9645;51.448;6.260;2024-03-07T08:14:22;12.70;1.00
19025;DHT22;9645;51.448;6.260;2024-03-07T08:16:49;12.70;1.00
19025;DHT22;9645;51.448;6.260;2024-03-07T08:19:17;12.90;1.00
19025;DHT22;9645;51.448;6.260;2024-03-07T08:21:44;13.80;1.00
19025;DHT22;9645;51.448;6.260;2024-03-07T08:24:10;14.80;1.00
19025;DHT22;9645;51.448;6.260;2024-03-07T08:26:37;15.50;99.90
19025;DHT22;9645;51.448;6.260;2024-03-07T08:29:10;16.40;99.90
19025;DHT22;9645;51.448;6.260;2024-03-07T08:31:39;16.90;99.90
19025;DHT22;9645;51.448;6.260;2024-03-07T08:34:06;17.00;99.90
19025;DHT22;9645;51.448;6.260;2024-03-07T08:36:33;15.60;99.90
19025;DHT22;9645;51.448;6.260;2024-03-07T08:39:02;14.70;99.90
19025;DHT22;9645;51.448;6.260;2024-03-07T08:41:29;14.50;99.90
19025;DHT22;9645;51.448;6.260;2024-03-07T08:44:02;14.70;1.00
19025;DHT22;9645;51.448;6.260;2024-03-07T08:46:29;15.70;99.90
19025;DHT22;9645;51.448;6.260;2024-03-07T08:48:57;16.90;99.90
19025;DHT22;9645;51.448;6.260;2024-03-07T08:51:24;17.50;99.90
19025;DHT22;9645;51.448;6.260;2024-03-07T08:53:51;17.90;99.90
19025;DHT22;9645;51.448;6.260;2024-03-07T08:56:18;18.50;99.90
19025;DHT22;9645;51.448;6.260;2024-03-07T08:58:45;19.50;99.90
19025;DHT22;9645;51.448;6.260;2024-03-07T09:01:12;19.40;99.90
19025;DHT22;9645;51.448;6.260;2024-03-07T09:03:39;19.80;99.90
19025;DHT22;9645;51.448;6.260;2024-03-07T09:06:07;20.10;79.60
19025;DHT22;9645;51.448;6.260;2024-03-07T09:08:39;21.40;52.60
19025;DHT22;9645;51.448;6.260;2024-03-07T09:11:06;21.60;67.00
19025;DHT22;9645;51.448;6.260;2024-03-07T09:13:32;22.10;36.20
19025;DHT22;9645;51.448;6.260;2024-03-07T09:16:00;22.00;16.30
19025;DHT22;9645;51.448;6.260;2024-03-07T09:18:30;22.00;19.20
19025;DHT22;9645;51.448;6.260;2024-03-07T09:20:57;22.50;1.00
19025;DHT22;9645;51.448;6.260;2024-03-07T09:23:25;22.30;1.00
19025;DHT22;9645;51.448;6.260;2024-03-07T09:25:52;23.00;1.00
19025;DHT22;9645;51.448;6.260;2024-03-07T09:28:19;22.90;1.00
19025;DHT22;9645;51.448;6.260;2024-03-07T10:00:28;24.60;1.00
19025;DHT22;9645;51.448;6.260;2024-03-07T10:02:58;24.60;1.00
19025;DHT22;9645;51.448;6.260;2024-03-07T10:05:27;24.90;1.00
19025;DHT22;9645;51.448;6.260;2024-03-07T10:07:55;24.60;1.00
19025;DHT22;9645;51.448;6.260;2024-03-07T10:10:22;24.30;1.00
19025;DHT22;9645;51.448;6.260;2024-03-07T10:12:50;25.60;1.00
19025;DHT22;9645;51.448;6.260;2024-03-07T10:15:20;25.70;1.00
19025;DHT22;9645;51.448;6.260;2024-03-07T10:17:48;24.80;1.00
19025;DHT22;9645;51.448;6.260;2024-03-07T10:20:18;23.80;1.00
19025;DHT22;9645;51.448;6.260;2024-03-07T10:22:47;23.80;1.00
19025;DHT22;9645;51.448;6.260;2024-03-07T10:25:17;23.90;1.00
19025;DHT22;9645;51.448;6.260;2024-03-07T10:27:46;23.60;1.00
19025;DHT22;9645;51.448;6.260;2024-03-07T10:30:15;24.40;1.00
19025;DHT22;9645;51.448;6.260;2024-03-07T10:32:48;24.60;1.00
19025;DHT22;9645;51.448;6.260;2024-03-07T10:35:21;22.60;1.00
19025;DHT22;9645;51.448;6.260;2024-03-07T10:37:50;19.30;1.00
19025;DHT22;9645;51.448;6.260;2024-03-07T10:40:17;16.50;1.00
19025;DHT22;9645;51.448;6.260;2024-03-07T10:42:46;16.00;1.00
19025;DHT22;9645;51.448;6.260;2024-03-07T10:45:18;14.30;1.00
19025;DHT22;9645;51.448;6.260;2024-03-07T10:47:52;13.40;46.40
19025;DHT22;9645;51.448;6.260;2024-03-07T10:50:35;12.30;99.90
19025;DHT22;9645;51.448;6.260;2024-03-07T10:53:10;11.80;99.90
19025;DHT22;9645;51.448;6.260;2024-03-07T10:55:47;11.60;99.90
19025;DHT22;9645;51.448;6.260;2024-03-07T10:58:36;11.60;99.90
19025;DHT22;9645;51.448;6.260;2024-03-07T11:01:05;11.50;99.90
19025;DHT22;9645;51.448;6.260;2024-03-07T11:03:35;11.20;99.90
19025;DHT22;9645;51.448;6.260;2024-03-07T11:06:02;11.30;99.90
19025;DHT22;9645;51.448;6.260;2024-03-07T11:08:32;11.60;99.90
19025;DHT22;9645;51.448;6.260;2024-03-07T11:11:00;13.00;99.90
19025;DHT22;9645;51.448;6.260;2024-03-07T11:13:28;14.70;99.90
19025;DHT22;9645;51.448;6.260;2024-03-07T11:15:56;17.10;79.60
19025;DHT22;9645;51.448;6.260;2024-03-07T11:18:25;18.90;29.50
19025;DHT22;9645;51.448;6.260;2024-03-07T11:20:55;20.70;1.00
19025;DHT22;9645;51.448;6.260;2024-03-07T11:23:27;21.10;1.00
19025;DHT22;9645;51.448;6.260;2024-03-07T11:26:02;20.50;1.00
19025;DHT22;9645;51.448;6.260;2024-03-07T11:28:33;20.30;1.00
19025;DHT22;9645;51.448;6.260;2024-03-07T11:31:25;20.90;1.00
19025;DHT22;9645;51.448;6.260;2024-03-07T11:41:57;23.60;1.00
19025;DHT22;9645;51.448;6.260;2024-03-07T11:44:24;23.70;1.00
19025;DHT22;9645;51.448;6.260;2024-03-07T11:46:51;23.80;1.00
19025;DHT22;9645;51.448;6.260;2024-03-07T11:49:18;23.60;1.00
19025;DHT22;9645;51.448;6.260;2024-03-07T11:51:47;23.90;1.00
19025;DHT22;9645;51.448;6.260;2024-03-07T11:54:16;23.80;1.00
19025;DHT22;9645;51.448;6.260;2024-03-07T11:56:50;23.80;1.00
19025;DHT22;9645;51.448;6.260;2024-03-07T11:59:17;23.60;1.00
19025;DHT22;9645;51.448;6.260;2024-03-07T12:01:44;23.80;1.00
19025;DHT22;9645;51.448;6.260;2024-03-07T12:04:11;23.90;1.00
19025;DHT22;9645;51.448;6.260;2024-03-07T12:06:52;24.00;1.00
19025;DHT22;9645;51.448;6.260;2024-03-07T12:09:19;23.40;1.00
19025;DHT22;9645;51.448;6.260;2024-03-07T12:11:49;22.30;1.00
19025;DHT22;9645;51.448;6.260;2024-03-07T12:14:18;20.80;1.00
19025;DHT22;9645;51.448;6.260;2024-03-07T12:16:45;19.70;1.00
19025;DHT22;9645;51.448;6.260;2024-03-07T12:19:13;19.10;1.00
19025;DHT22;9645;51.448;6.260;2024-03-07T12:21:43;18.30;1.00
19025;DHT22;9645;51.448;6.260;2024-03-07T12:24:15;17.60;1.00
19025;DHT22;9645;51.448;6.260;2024-03-07T12:26:42;17.50;1.00
19025;DHT22;9645;51.448;6.260;2024-03-07T12:29:10;17.70;1.00
19025;DHT22;9645;51.448;6.260;2024-03-07T12:31:37;17.90;1.00
19025;DHT22;9645;51.448;6.260;2024-03-07T12:34:05;19.00;1.00
19025;DHT22;9645;51.448;6.260;2024-03-07T12:36:35;20.60;1.00
19025;DHT22;9645;51.448;6.260;2024-03-07T12:39:23;20.50;1.00
19025;DHT22;9645;51.448;6.260;2024-03-07T12:41:56;19.20;1.00
19025;DHT22;9645;51.448;6.260;2024-03-07T12:44:23;19.70;1.00
19025;DHT22;9645;51.448;6.260;2024-03-07T12:46:51;19.80;1.00
19025;DHT22;9645;51.448;6.260;2024-03-07T12:49:21;18.30;1.00
19025;DHT22;9645;51.448;6.260;2024-03-07T12:51:53;17.40;1.00
19025;DHT22;9645;51.448;6.260;2024-03-07T12:54:20;16.90;1.00
19025;DHT22;9645;51.448;6.260;2024-03-07T12:56:49;16.20;1.00
19025;DHT22;9645;51.448;6.260;2024-03-07T12:59:16;15.50;1.00
19025;DHT22;9645;51.448;6.260;2024-03-07T13:01:49;14.00;99.90
19025;DHT22;9645;51.448;6.260;2024-03-07T13:04:16;13.80;99.90
19025;DHT22;9645;51.448;6.260;2024-03-07T13:06:43;13.40;99.90
19025;DHT22;9645;51.448;6.260;2024-03-07T13:09:13;13.00;99.90
19025;DHT22;9645;51.448;6.260;2024-03-07T13:11:40;12.70;99.90
19025;DHT22;9645;51.448;6.260;2024-03-07T13:14:12;12.40;99.90
19025;DHT22;9645;51.448;6.260;2024-03-07T13:16:39;12.30;99.90
19025;DHT22;9645;51.448;6.260;2024-03-07T13:19:08;12.40;99.90
19025;DHT22;9645;51.448;6.260;2024-03-07T13:21:37;12.60;1.00
19025;DHT22;9645;51.448;6.260;2024-03-07T13:24:05;12.60;1.00
19025;DHT22;9645;51.448;6.260;2024-03-07T13:26:34;12.50;1.00
19025;DHT22;9645;51.448;6.260;2024-03-07T13:29:02;12.90;1.00
19025;DHT22;9645;51.448;6.260;2024-03-07T13:31:31;13.20;99.90
19025;DHT22;9645;51.448;6.260;2024-03-07T13:33:58;13.10;99.90
19025;DHT22;9645;51.448;6.260;2024-03-07T13:36:27;12.90;1.00
19025;DHT22;9645;51.448;6.260;2024-03-07T13:38:54;12.90;1.00
19025;DHT22;9645;51.448;6.260;2024-03-07T13:41:23;12.70;1.00
19025;DHT22;9645;51.448;6.260;2024-03-07T13:43:54;12.60;99.90
19025;DHT22;9645;51.448;6.260;2024-03-07T13:46:22;12.50;1.00
19025;DHT22;9645;51.448;6.260;2024-03-07T13:48:50;12.60;1.00
19025;DHT22;9645;51.448;6.260;2024-03-07T13:51:18;12.60;1.00
19025;DHT22;9645;51.448;6.260;2024-03-07T13:53:46;12.40;1.00
19025;DHT22;9645;51.448;6.260;2024-03-07T13:56:39;12.20;1.00
19025;DHT22;9645;51.448;6.260;2024-03-07T14:02:33;11.90;1.00
19025;DHT22;9645;51.448;6.260;2024-03-07T14:05:37;11.90;1.00
19025;DHT22;9645;51.448;6.260;2024-03-07T14:08:27;12.10;1.00
19025;DHT22;9645;51.448;6.260;2024-03-07T14:11:38;12.40;1.00
19025;DHT22;9645;51.448;6.260;2024-03-07T14:14:21;12.50;1.00
19025;DHT22;9645;51.448;6.260;2024-03-07T14:17:13;12.20;1.00
19025;DHT22;9645;51.448;6.260;2024-03-07T14:23:10;11.70;99.90
19025;DHT22;9645;51.448;6.260;2024-03-07T14:25:56;11.60;99.90
19025;DHT22;9645;51.448;6.260;2024-03-07T14:29:02;11.50;99.90
19025;DHT22;9645;51.448;6.260;2024-03-07T14:31:31;11.40;1.00
19025;DHT22;9645;51.448;6.260;2024-03-07T14:34:06;11.30;1.00
19025;DHT22;9645;51.448;6.260;2024-03-07T14:36:43;11.30;1.00
19025;DHT22;9645;51.448;6.260;2024-03-07T14:39:13;11.10;1.00
19025;DHT22;9645;51.448;6.260;2024-03-07T14:41:48;10.90;99.90
19025;DHT22;9645;51.448;6.260;2024-03-07T14:44:17;11.00;99.90
19025;DHT22;9645;51.448;6.260;2024-03-07T14:46:47;11.00;1.00
19025;DHT22;9645;51.448;6.260;2024-03-07T14:49:17;11.00;26.20
19025;DHT22;9645;51.448;6.260;2024-03-07T14:51:45;10.90;1.00
19025;DHT22;9645;51.448;6.260;2024-03-07T14:54:16;10.50;1.00
19025;DHT22;9645;51.448;6.260;2024-03-07T14:56:43;10.80;1.00
19025;DHT22;9645;51.448;6.260;2024-03-07T14:59:10;10.70;1.00
19025;DHT22;9645;51.448;6.260;2024-03-07T15:01:38;10.70;99.90
19025;DHT22;9645;51.448;6.260;2024-03-07T15:04:05;10.80;99.90
19025;DHT22;9645;51.448;6.260;2024-03-07T15:06:33;10.80;99.90
19025;DHT22;9645;51.448;6.260;2024-03-07T15:09:01;10.80;67.60
19025;DHT22;9645;51.448;6.260;2024-03-07T15:11:33;10.70;1.00
19025;DHT22;9645;51.448;6.260;2024-03-07T15:14:01;10.50;1.00
19025;DHT22;9645;51.448;6.260;2024-03-07T15:16:30;10.40;1.00
19025;DHT22;9645;51.448;6.260;2024-03-07T15:19:00;10.40;1.00
19025;DHT22;9645;51.448;6.260;2024-03-07T15:21:27;9.50;1.00
19025;DHT22;9645;51.448;6.260;2024-03-07T15:23:54;10.50;1.00
19025;DHT22;9645;51.448;6.260;2024-03-07T15:26:21;10.50;1.00
19025;DHT22;9645;51.448;6.260;2024-03-07T15:28:50;10.50;1.00
19025;DHT22;9645;51.448;6.260;2024-03-07T15:31:18;10.50;1.00
19025;DHT22;9645;51.448;6.260;2024-03-07T15:33:46;10.60;1.00
19025;DHT22;9645;51.448;6.260;2024-03-07T15:36:15;10.60;1.00
19025;DHT22;9645;51.448;6.260;2024-03-07T15:38:43;10.60;1.00
19025;DHT22;9645;51.448;6.260;2024-03-07T15:41:10;10.50;1.00
19025;DHT22;9645;51.448;6.260;2024-03-07T15:43:40;10.60;1.00
19025;DHT22;9645;51.448;6.260;2024-03-07T15:46:10;10.50;99.90
19025;DHT22;9645;51.448;6.260;2024-03-07T15:48:39;10.50;1.00
19025;DHT22;9645;51.448;6.260;2024-03-07T15:51:06;10.40;99.90
19025;DHT22;9645;51.448;6.260;2024-03-07T15:53:36;9.70;99.90
19025;DHT22;9645;51.448;6.260;2024-03-07T15:56:03;10.20;99.90
19025;DHT22;9645;51.448;6.260;2024-03-07T15:58:34;10.20;99.90
19025;DHT22;9645;51.448;6.260;2024-03-07T16:01:03;10.10;42.50
19025;DHT22;9645;51.448;6.260;2024-03-07T16:03:33;10.20;7.70
19025;DHT22;9645;51.448;6.260;2024-03-07T16:06:00;10.10;1.00
19025;DHT22;9645;51.448;6.260;2024-03-07T16:08:28;9.20;1.00
19025;DHT22;9645;51.448;6.260;2024-03-07T16:10:55;10.00;1.00
19025;DHT22;9645;51.448;6.260;2024-03-07T16:13:22;10.00;63.40
19025;DHT22;9645;51.448;6.260;2024-03-07T16:15:49;9.90;28.20
19025;DHT22;9645;51.448;6.260;2024-03-07T16:18:20;9.80;1.00
19025;DHT22;9645;51.448;6.260;2024-03-07T16:20:52;9.70;1.00
19025;DHT22;9645;51.448;6.260;2024-03-07T16:23:21;9.70;1.00
19025;DHT22;9645;51.448;6.260;2024-03-07T16:25:48;9.60;1.00
19025;DHT22;9645;51.448;6.260;2024-03-07T16:28:15;9.60;38.20
19025;DHT22;9645;51.448;6.260;2024-03-07T16:30:46;9.60;60.80
19025;DHT22;9645;51.448;6.260;2024-03-07T16:33:15;9.70;33.10
19025;DHT22;9645;51.448;6.260;2024-03-07T16:35:42;9.60;1.00
19025;DHT22;9645;51.448;6.260;2024-03-07T16:38:12;9.60;1.00
19025;DHT22;9645;51.448;6.260;2024-03-07T16:40:39;9.60;1.00
19025;DHT22;9645;51.448;6.260;2024-03-07T16:43:08;9.60;1.00
19025;DHT22;9645;51.448;6.260;2024-03-07T16:45:37;9.60;1.00
19025;DHT22;9645;51.448;6.260;2024-03-07T16:48:07;9.50;1.00
19025;DHT22;9645;51.448;6.260;2024-03-07T16:50:35;9.40;1.00
19025;DHT22;9645;51.448;6.260;2024-03-07T16:53:08;9.40;1.00
19025;DHT22;9645;51.448;6.260;2024-03-07T16:55:37;9.30;1.00